Time;durP1;ratioP1;P1;durP2;ratioP2;P2;SDS_P1;SDS_P2;PMS_P1;PMS_P2;Temp;Humidity;BMP_temperature;BMP_pressure;BME280_temperature;BME280_humidity;BME280_pressure;Samples;Min_cycle;Max_cycle;Signal;HPM_P1;HPM_P2
2022/09/01 00:01:53;;;;;;;14.13;2.60;;;;;;;-144.43;100.00;67396.00;5093197;28;20020;-63
2022/09/01 00:04:26;;;;;;;13.90;2.72;;;;;;;-144.43;100.00;67396.00;5084744;28;20093;-64
2022/09/01 00:06:54;;;;;;;13.43;2.72;;;;;;;-144.43;100.00;67396.00;5094695;28;20044;-63
2022/09/01 00:09:22;;;;;;;10.80;2.42;;;;;;;-144.43;100.00;67396.00;5092180;28;20032;-63
2022/09/01 00:11:52;;;;;;;16.10;2.88;;;;;;;-144.43;100.00;67396.00;5106893;28;20566;-63
2022/09/01 00:14:22;;;;;;;12.85;2.67;;;;;;;-144.43;100.00;67396.00;5090297;28;20036;-60
2022/09/01 00:16:49;;;;;;;11.02;2.30;;;;;;;-144.43;100.00;67396.00;5091850;28;20040;-63
2022/09/01 00:19:16;;;;;;;14.85;2.35;;;;;;;-144.43;100.00;67396.00;5096998;28;20071;-63
2022/09/01 00:21:44;;;;;;;13.70;2.53;;;;;;;-144.43;100.00;67396.00;5091387;28;20039;-63
2022/09/01 00:24:14;;;;;;;27.45;3.40;;;;;;;-144.43;100.00;67396.00;5089872;28;20028;-62
2022/09/01 00:26:41;;;;;;;12.35;2.55;;;;;;;-144.43;100.00;67396.00;5094370;28;20043;-62
2022/09/01 00:29:08;;;;;;;24.80;3.10;;;;;;;-144.43;100.00;67396.00;5092661;28;20043;-63
2022/09/01 00:31:35;;;;;;;8.60;1.90;;;;;;;-144.43;100.00;67396.00;5090686;28;20039;-64
2022/09/01 00:34:02;;;;;;;14.68;2.25;;;;;;;-144.43;100.00;67396.00;5087812;28;20523;-64
2022/09/01 00:36:29;;;;;;;15.25;2.50;;;;;;;-144.43;100.00;67396.00;5092319;28;20028;-60
2022/09/01 00:38:56;;;;;;;12.70;2.05;;;;;;;-144.43;100.00;67396.00;5092112;28;20020;-63
2022/09/01 00:41:25;;;;;;;11.10;1.92;;;;;;;-144.43;100.00;67396.00;5091264;28;20052;-61
2022/09/01 00:43:56;;;;;;;13.35;2.05;;;;;;;-144.43;100.00;67396.00;5088245;28;20493;-63
2022/09/01 00:46:26;;;;;;;15.23;2.10;;;;;;;-144.43;100.00;67396.00;5091889;28;20024;-62
2022/09/01 00:49:01;;;;;;;21.35;2.35;;;;;;;-144.43;100.00;67396.00;5083420;28;20028;-63
2022/09/01 00:51:29;;;;;;;12.13;1.83;;;;;;;-144.43;100.00;67396.00;5086125;28;20036;-61
2022/09/01 00:53:57;;;;;;;11.00;2.03;;;;;;;-144.43;100.00;67396.00;5089499;28;20031;-63
2022/09/01 00:56:24;;;;;;;16.45;2.15;;;;;;;-144.43;100.00;67396.00;5091818;28;20123;-64
2022/09/01 00:58:52;;;;;;;11.40;1.77;;;;;;;-144.43;100.00;67396.00;5088386;28;20029;-62
2022/09/01 01:01:19;;;;;;;14.15;1.85;;;;;;;-144.43;100.00;67396.00;5087313;28;20028;-60
2022/09/01 01:03:46;;;;;;;26.67;2.65;;;;;;;-144.43;100.00;67396.00;5091523;28;20390;-60
2022/09/01 01:06:18;;;;;;;14.52;1.98;;;;;;;-144.43;100.00;67396.00;5090458;28;20548;-62
2022/09/01 01:08:56;;;;;;;12.27;1.60;;;;;;;-144.43;100.00;67396.00;5089778;28;20036;-62
2022/09/01 01:11:26;;;;;;;11.07;1.70;;;;;;;-144.43;100.00;67396.00;5090791;28;20264;-62
2022/09/01 01:13:59;;;;;;;18.77;2.13;;;;;;;-144.43;100.00;67396.00;5088425;28;20042;-62
2022/09/01 01:16:28;;;;;;;10.18;1.50;;;;;;;-144.43;100.00;67396.00;5089621;28;20036;-60
2022/09/01 01:18:55;;;;;;;14.38;1.80;;;;;;;-144.43;100.00;67396.00;5088987;28;20023;-61
2022/09/01 01:24:18;;;;;;;9.30;1.73;;;;;;;-144.43;100.00;67396.00;5087515;28;20478;-61
2022/09/01 01:26:46;;;;;;;12.52;1.73;;;;;;;-144.43;100.00;67396.00;5089376;28;20042;-62
2022/09/01 01:29:14;;;;;;;12.10;1.52;;;;;;;-144.43;100.00;67396.00;5089483;28;20028;-61
2022/09/01 01:31:41;;;;;;;12.43;1.70;;;;;;;-144.43;100.00;67396.00;5089861;28;20036;-61
2022/09/01 01:34:08;;;;;;;11.65;2.00;;;;;;;-144.43;100.00;67396.00;5091002;28;20030;-61
2022/09/01 01:36:38;;;;;;;13.93;3.00;;;;;;;-144.43;100.00;67396.00;5091080;28;20028;-60
2022/09/01 01:39:13;;;;;;;27.17;2.70;;;;;;;-144.43;100.00;67396.00;5089191;28;20043;-59
2022/09/01 01:41:44;;;;;;;10.70;1.83;;;;;;;-144.43;100.00;67396.00;5075289;28;20102;-62
2022/09/01 01:44:12;;;;;;;8.60;1.58;;;;;;;-144.43;100.00;67396.00;5090641;28;20397;-60
2022/09/01 01:46:43;;;;;;;15.77;2.08;;;;;;;-144.43;100.00;67396.00;5089018;28;20027;-63
2022/09/01 01:49:14;;;;;;;11.93;2.20;;;;;;;-144.43;100.00;67396.00;5089535;28;20058;-62
2022/09/01 01:51:42;;;;;;;13.68;2.25;;;;;;;-144.43;100.00;67396.00;5085394;28;20127;-64
2022/09/01 01:54:09;;;;;;;14.82;2.00;;;;;;;-144.43;100.00;67396.00;5091628;28;20035;-64
2022/09/01 01:56:38;;;;;;;13.73;2.22;;;;;;;-144.43;100.00;67396.00;5088632;28;20032;-63
2022/09/01 01:59:06;;;;;;;11.35;2.00;;;;;;;-144.43;100.00;67396.00;5085147;28;20073;-64
2022/09/01 02:01:33;;;;;;;10.73;2.05;;;;;;;-144.43;100.00;67396.00;5088673;28;20105;-62
2022/09/01 02:04:03;;;;;;;9.77;1.95;;;;;;;-144.43;100.00;67396.00;5087068;28;20456;-64
2022/09/01 02:06:34;;;;;;;12.10;2.00;;;;;;;-144.43;100.00;67396.00;5087905;28;20097;-64
2022/09/01 02:09:02;;;;;;;13.82;2.28;;;;;;;-144.43;100.00;67396.00;5088700;28;20040;-63
2022/09/01 02:11:36;;;;;;;14.48;2.60;;;;;;;-144.43;100.00;67396.00;5092206;28;20032;-64
2022/09/01 02:14:06;;;;;;;19.42;2.35;;;;;;;-144.43;100.00;67396.00;5086154;28;20383;-64
2022/09/01 02:16:34;;;;;;;15.55;2.50;;;;;;;-144.43;100.00;67396.00;5088205;28;20032;-61
2022/09/01 02:19:06;;;;;;;15.48;2.78;;;;;;;-144.43;100.00;67396.00;5088223;28;20047;-62
2022/09/01 02:21:33;;;;;;;18.55;3.85;;;;;;;-144.43;100.00;67396.00;5089282;28;20405;-62
2022/09/01 02:24:04;;;;;;;15.90;3.60;;;;;;;-144.43;100.00;67396.00;5084501;28;20028;-59
2022/09/01 02:26:39;;;;;;;17.17;3.60;;;;;;;-144.43;100.00;67396.00;5085305;28;20091;-60
2022/09/01 02:29:16;;;;;;;17.08;3.03;;;;;;;-144.43;100.00;67396.00;5089053;28;20052;-62
2022/09/01 02:31:51;;;;;;;20.13;2.85;;;;;;;-144.43;100.00;67396.00;5090462;28;20051;-62
2022/09/01 02:34:19;;;;;;;20.10;3.42;;;;;;;-144.43;100.00;67396.00;5089081;28;20089;-62
2022/09/01 02:36:50;;;;;;;22.02;3.60;;;;;;;-144.43;100.00;67396.00;5089292;28;20024;-62
2022/09/01 02:39:38;;;;;;;18.08;3.53;;;;;;;-144.43;100.00;67396.00;5088808;28;20379;-61
2022/09/01 02:42:05;;;;;;;21.40;3.78;;;;;;;-144.43;100.00;67396.00;5090166;28;20032;-59
2022/09/01 02:44:31;;;;;;;21.48;3.33;;;;;;;-144.43;100.00;67396.00;5085891;28;20044;-60
2022/09/01 02:47:00;;;;;;;22.63;3.38;;;;;;;-144.43;100.00;67396.00;5089034;28;20498;-61
2022/09/01 02:49:28;;;;;;;17.45;3.97;;;;;;;-144.43;100.00;67396.00;5071978;28;20036;-60
2022/09/01 02:52:00;;;;;;;24.23;4.45;;;;;;;-144.43;100.00;67396.00;5088372;28;20024;-62
2022/09/01 02:54:29;;;;;;;18.42;3.90;;;;;;;-144.43;100.00;67396.00;5087405;28;20041;-62
2022/09/01 02:56:56;;;;;;;23.13;4.20;;;;;;;-144.43;100.00;67396.00;5087109;28;20028;-60
2022/09/01 02:59:26;;;;;;;20.02;3.72;;;;;;;-144.43;100.00;67396.00;5087678;28;20036;-61
2022/09/01 03:01:56;;;;;;;20.13;4.40;;;;;;;-144.43;100.00;67396.00;5090825;28;20056;-61
2022/09/01 03:04:23;;;;;;;19.30;4.20;;;;;;;-144.43;100.00;67396.00;5092409;28;20040;-62
2022/09/01 03:06:53;;;;;;;18.48;4.45;;;;;;;-144.43;100.00;67396.00;5091709;28;20048;-61
2022/09/01 03:09:21;;;;;;;23.00;4.38;;;;;;;-144.43;100.00;67396.00;5088895;28;20037;-63
2022/09/01 03:11:51;;;;;;;19.63;4.07;;;;;;;-144.43;100.00;67396.00;5092255;28;20223;-63
2022/09/01 03:14:20;;;;;;;16.48;4.10;;;;;;;-144.43;100.00;67396.00;5093521;28;20028;-60
2022/09/01 03:16:46;;;;;;;19.20;4.10;;;;;;;-144.43;100.00;67396.00;5092466;28;20020;-61
2022/09/01 03:19:13;;;;;;;16.65;3.35;;;;;;;-144.43;100.00;67396.00;5092118;28;20027;-63
2022/09/01 03:21:43;;;;;;;17.15;3.13;;;;;;;-144.43;100.00;67396.00;5091937;28;20126;-62
2022/09/01 03:24:15;;;;;;;13.25;2.65;;;;;;;-144.43;100.00;67396.00;5108049;28;20040;-61
2022/09/01 03:26:45;;;;;;;11.65;2.50;;;;;;;-144.43;100.00;67396.00;5091998;28;20043;-61
2022/09/01 03:29:12;;;;;;;10.27;2.15;;;;;;;-144.43;100.00;67396.00;5089883;28;20111;-60
2022/09/01 03:31:39;;;;;;;10.68;2.25;;;;;;;-144.43;100.00;67396.00;5089165;28;20035;-61
2022/09/01 03:34:09;;;;;;;14.45;2.13;;;;;;;-144.43;100.00;67396.00;5104828;28;20028;-61
2022/09/01 03:36:48;;;;;;;13.23;2.33;;;;;;;-144.43;100.00;67396.00;5091610;28;20463;-61
2022/09/01 03:39:18;;;;;;;11.32;2.42;;;;;;;-144.43;100.00;67396.00;5089964;28;20498;-64
2022/09/01 03:41:47;;;;;;;14.18;2.60;;;;;;;-144.43;100.00;67396.00;5091676;28;20398;-62
2022/09/01 03:44:15;;;;;;;14.57;2.90;;;;;;;-144.43;100.00;67396.00;5091664;28;20563;-61
2022/09/01 03:46:43;;;;;;;14.35;3.05;;;;;;;-144.43;100.00;67396.00;5091871;28;20093;-63
2022/09/01 03:49:14;;;;;;;11.55;2.28;;;;;;;-144.43;100.00;67396.00;5106375;28;20020;-62
2022/09/01 03:51:44;;;;;;;14.65;2.88;;;;;;;-144.43;100.00;67396.00;5091661;28;20039;-64
2022/09/01 03:54:12;;;;;;;15.60;2.38;;;;;;;-144.43;100.00;67396.00;5091644;28;20036;-62
2022/09/01 03:56:40;;;;;;;20.90;2.42;;;;;;;-144.43;100.00;67396.00;5090447;28;20118;-63
2022/09/01 03:59:15;;;;;;;15.43;2.00;;;;;;;-144.43;100.00;67396.00;5091112;28;20061;-60
2022/09/01 04:01:44;;;;;;;13.00;2.10;;;;;;;-144.43;100.00;67396.00;5090638;28;20085;-62
2022/09/01 04:04:15;;;;;;;12.75;2.25;;;;;;;-144.43;100.00;67396.00;5091226;28;20032;-63
2022/09/01 04:06:44;;;;;;;10.88;2.50;;;;;;;-144.43;100.00;67396.00;5087776;28;20032;-63
2022/09/01 04:09:12;;;;;;;16.52;2.50;;;;;;;-144.43;100.00;67396.00;5090538;28;20040;-63
2022/09/01 04:11:45;;;;;;;12.35;2.55;;;;;;;-144.43;100.00;67396.00;5091058;28;20490;-61
2022/09/01 04:14:12;;;;;;;14.32;2.42;;;;;;;-144.43;100.00;67396.00;5088386;28;20056;-64
2022/09/01 04:19:26;;;;;;;14.30;2.53;;;;;;;-144.43;100.00;67396.00;5091574;28;20028;-61
2022/09/01 04:21:59;;;;;;;17.20;4.03;;;;;;;-144.43;100.00;67396.00;5088312;28;20020;-59
2022/09/01 04:24:31;;;;;;;16.08;3.80;;;;;;;-144.43;100.00;67396.00;5074565;28;20028;-62
2022/09/01 04:27:00;;;;;;;21.52;4.20;;;;;;;-144.43;100.00;67396.00;5089642;28;20645;-61
2022/09/01 04:29:29;;;;;;;19.20;4.88;;;;;;;-144.43;100.00;67396.00;5090947;28;20348;-60
2022/09/01 04:32:05;;;;;;;25.88;5.85;;;;;;;-144.43;100.00;67396.00;5089936;28;20028;-61
2022/09/01 04:34:38;;;;;;;24.35;5.78;;;;;;;-144.43;100.00;67396.00;5089155;28;20066;-62
2022/09/01 04:37:11;;;;;;;59.70;8.20;;;;;;;-144.43;100.00;67396.00;5123585;27;20104;-63
2022/09/01 04:39:47;;;;;;;25.42;7.55;;;;;;;-144.43;100.00;67396.00;5088485;28;20496;-62
2022/09/01 04:42:15;;;;;;;36.08;7.18;;;;;;;-144.43;100.00;67396.00;5088037;28;20047;-62
2022/09/01 04:44:45;;;;;;;27.13;6.30;;;;;;;-144.43;100.00;67396.00;5089240;28;20506;-60
2022/09/01 04:47:15;;;;;;;31.27;6.22;;;;;;;-144.43;100.00;67396.00;5090041;28;20144;-60
2022/09/01 04:49:49;;;;;;;38.03;5.00;;;;;;;-144.43;100.00;67396.00;5070887;28;20032;-62
2022/09/01 04:52:17;;;;;;;51.42;6.55;;;;;;;-144.43;100.00;67396.00;5087590;28;20036;-62
2022/09/01 04:54:45;;;;;;;29.20;5.10;;;;;;;-144.43;100.00;67396.00;5087910;28;20111;-59
2022/09/01 04:57:12;;;;;;;26.52;4.47;;;;;;;-144.43;100.00;67396.00;5063287;28;20530;-63
2022/09/01 04:59:39;;;;;;;30.67;5.07;;;;;;;-144.43;100.00;67396.00;5088358;28;20390;-62
2022/09/01 05:02:08;;;;;;;33.40;5.07;;;;;;;-144.43;100.00;67396.00;5087246;28;20043;-60
2022/09/01 05:04:35;;;;;;;31.73;4.82;;;;;;;-144.43;100.00;67396.00;5090801;28;20107;-61
2022/09/01 05:07:04;;;;;;;28.70;5.05;;;;;;;-144.43;100.00;67396.00;5090077;28;20043;-62
2022/09/01 05:09:37;;;;;;;28.48;4.78;;;;;;;-144.43;100.00;67396.00;5087895;28;20043;-62
2022/09/01 05:12:32;;;;;;;26.27;4.90;;;;;;;-144.43;100.00;67396.00;5087740;28;20502;-61
2022/09/01 05:15:05;;;;;;;21.42;4.70;;;;;;;-144.43;100.00;67396.00;5089969;28;20039;-61
2022/09/01 05:17:33;;;;;;;29.15;5.10;;;;;;;-144.43;100.00;67396.00;5087043;28;20031;-62
2022/09/01 05:19:59;;;;;;;28.65;4.60;;;;;;;-144.43;100.00;67396.00;5089498;28;20035;-61
2022/09/01 05:22:27;;;;;;;36.10;5.32;;;;;;;-144.43;100.00;67396.00;5091316;28;20046;-62
2022/09/01 05:25:11;;;;;;;35.33;5.97;;;;;;;-144.43;100.00;67396.00;5090108;28;20355;-62
2022/09/01 05:27:48;;;;;;;30.30;5.90;;;;;;;-144.43;100.00;67396.00;5090059;28;20109;-63
2022/09/01 05:30:17;;;;;;;33.00;5.93;;;;;;;-144.43;100.00;67396.00;5089482;28;20494;-62
2022/09/01 05:32:47;;;;;;;30.63;5.57;;;;;;;-144.43;100.00;67396.00;5074692;28;20035;-63
2022/09/01 05:35:14;;;;;;;36.15;5.70;;;;;;;-144.43;100.00;67396.00;5090653;28;20028;-63
2022/09/01 05:37:42;;;;;;;31.10;5.70;;;;;;;-144.43;100.00;67396.00;5090348;28;20032;-62
2022/09/01 05:40:14;;;;;;;33.15;6.20;;;;;;;-144.43;100.00;67396.00;5090050;28;20117;-62
2022/09/01 05:42:44;;;;;;;33.70;5.50;;;;;;;-144.43;100.00;67396.00;5087425;28;20047;-62
2022/09/01 05:45:13;;;;;;;22.65;4.60;;;;;;;-144.43;100.00;67396.00;5088751;28;20056;-64
2022/09/01 05:47:40;;;;;;;31.35;5.38;;;;;;;-144.43;100.00;67396.00;5089926;28;20020;-63
2022/09/01 05:50:10;;;;;;;27.33;4.80;;;;;;;-144.43;100.00;67396.00;5073996;28;20032;-63
2022/09/01 05:52:39;;;;;;;38.22;5.78;;;;;;;-144.43;100.00;67396.00;5072346;28;20077;-65
2022/09/01 05:55:08;;;;;;;24.27;4.65;;;;;;;-144.43;100.00;67396.00;5090121;28;20059;-65
2022/09/01 05:57:38;;;;;;;28.35;5.18;;;;;;;-144.43;100.00;67396.00;5088318;28;20020;-64
2022/09/01 06:00:12;;;;;;;27.42;5.60;;;;;;;-144.43;100.00;67396.00;5089418;28;20034;-64
2022/09/01 06:02:42;;;;;;;29.73;5.43;;;;;;;-144.43;100.00;67396.00;5091596;28;20040;-63
2022/09/01 06:05:14;;;;;;;31.27;5.10;;;;;;;-144.43;100.00;67396.00;5088666;28;20119;-64
2022/09/01 06:07:41;;;;;;;31.98;5.18;;;;;;;-144.43;100.00;67396.00;5088850;28;20071;-63
2022/09/01 06:10:09;;;;;;;36.53;5.43;;;;;;;-144.43;100.00;67396.00;5090324;28;20040;-62
2022/09/01 06:12:37;;;;;;;32.90;5.82;;;;;;;-144.43;100.00;67396.00;5090783;28;20146;-62
2022/09/01 06:15:14;;;;;;;29.73;5.60;;;;;;;-144.43;100.00;67396.00;5089705;28;20028;-63
2022/09/01 06:17:45;;;;;;;30.52;6.05;;;;;;;-144.43;100.00;67396.00;5089924;28;20113;-63
2022/09/01 06:20:12;;;;;;;36.42;6.47;;;;;;;-144.43;100.00;67396.00;5086858;28;20089;-62
2022/09/01 06:22:42;;;;;;;34.33;6.68;;;;;;;-144.43;100.00;67396.00;5073833;28;20028;-64
2022/09/01 06:25:10;;;;;;;50.83;8.05;;;;;;;-144.43;100.00;67396.00;5089991;28;20436;-62
2022/09/01 06:27:41;;;;;;;53.67;9.43;;;;;;;-144.43;100.00;67396.00;5073444;28;20032;-63
2022/09/01 06:30:16;;;;;;;124.13;12.27;;;;;;;-144.43;100.00;67396.00;5089687;28;20059;-62
2022/09/01 06:32:50;;;;;;;51.17;9.77;;;;;;;-144.43;100.00;67396.00;5092315;28;20032;-64
2022/09/01 06:35:18;;;;;;;54.67;9.82;;;;;;;-144.43;100.00;67396.00;5094750;28;20107;-63
2022/09/01 06:37:45;;;;;;;59.95;9.52;;;;;;;-144.43;100.00;67396.00;5093809;28;20024;-62
2022/09/01 06:40:25;;;;;;;55.30;10.90;;;;;;;-144.43;100.00;67396.00;5092483;28;20487;-62
2022/09/01 06:42:52;;;;;;;59.58;10.13;;;;;;;-144.43;100.00;67396.00;5091113;28;20105;-62
2022/09/01 06:45:22;;;;;;;60.92;10.98;;;;;;;-144.43;100.00;67396.00;5093567;28;20059;-63
2022/09/01 06:47:51;;;;;;;65.68;11.43;;;;;;;-144.43;100.00;67396.00;5094066;28;20471;-63
2022/09/01 06:50:22;;;;;;;67.57;12.30;;;;;;;-144.43;100.00;67396.00;5077331;28;20463;-64
2022/09/01 06:53:00;;;;;;;77.53;12.07;;;;;;;-144.43;100.00;67396.00;5090316;28;20495;-63
2022/09/01 06:55:32;;;;;;;78.65;13.32;;;;;;;-144.43;100.00;67396.00;5087070;28;20027;-63
2022/09/01 06:58:00;;;;;;;82.05;13.50;;;;;;;-144.43;100.00;67396.00;5090583;28;20033;-63
2022/09/01 07:00:27;;;;;;;64.95;13.73;;;;;;;-144.43;100.00;67396.00;5093298;28;20386;-63
2022/09/01 07:02:56;;;;;;;67.50;11.73;;;;;;;-144.43;100.00;67396.00;5093480;28;20466;-64
2022/09/01 07:05:41;;;;;;;48.28;8.80;;;;;;;-144.43;100.00;67396.00;5093617;28;20028;-63
2022/09/01 07:08:13;;;;;;;31.40;7.10;;;;;;;-144.43;100.00;67396.00;5093430;28;20092;-63
2022/09/01 07:11:22;;;;;;;29.52;6.93;;;;;;;-144.43;100.00;67396.00;5064346;28;20067;-63
2022/09/01 07:13:53;;;;;;;32.70;6.47;;;;;;;-144.43;100.00;67396.00;5093290;28;20123;-62
2022/09/01 07:16:21;;;;;;;26.98;6.00;;;;;;;-144.43;100.00;67396.00;5093681;28;20063;-63
2022/09/01 07:18:50;;;;;;;20.90;5.50;;;;;;;-144.43;100.00;67396.00;5088186;28;20126;-62
2022/09/01 07:21:18;;;;;;;24.88;5.10;;;;;;;-144.43;100.00;67396.00;5127395;27;20148;-63
2022/09/01 07:23:48;;;;;;;18.75;4.88;;;;;;;-144.43;100.00;67396.00;5080036;28;20119;-62
2022/09/01 07:26:18;;;;;;;39.63;5.15;;;;;;;-144.43;100.00;67396.00;5089846;28;20119;-63
2022/09/01 07:28:46;;;;;;;13.70;4.03;;;;;;;-144.43;100.00;67396.00;5093065;28;20085;-63
2022/09/01 07:31:24;;;;;;;21.77;4.20;;;;;;;-144.43;100.00;67396.00;5093134;28;20035;-63
2022/09/01 07:33:53;;;;;;;17.83;3.97;;;;;;;-144.43;100.00;67396.00;5088497;28;20036;-62
2022/09/01 07:36:21;;;;;;;18.23;4.07;;;;;;;-144.43;100.00;67396.00;5125584;27;20131;-63
2022/09/01 07:38:52;;;;;;;15.98;4.03;;;;;;;-144.43;100.00;67396.00;5092452;28;20089;-63
2022/09/01 07:41:23;;;;;;;16.10;3.88;;;;;;;-144.43;100.00;67396.00;5093699;28;20020;-63
2022/09/01 07:44:25;;;;;;;15.73;4.10;;;;;;;-144.43;100.00;67396.00;5050445;28;20154;-62
2022/09/01 07:47:24;;;;;;;19.05;4.10;;;;;;;-144.43;100.00;67396.00;5084151;28;20503;-62
2022/09/01 07:49:50;;;;;;;12.07;3.63;;;;;;;-144.43;100.00;67396.00;5093717;28;20418;-62
2022/09/01 07:52:19;;;;;;;11.25;3.60;;;;;;;-144.43;100.00;67396.00;5092645;28;20027;-63
2022/09/01 07:54:46;;;;;;;15.35;3.00;;;;;;;-144.43;100.00;67396.00;5092652;28;20561;-62
2022/09/01 07:57:14;;;;;;;12.07;3.03;;;;;;;-144.43;100.00;67396.00;5094910;28;20035;-61
2022/09/01 07:59:42;;;;;;;13.68;3.40;;;;;;;-144.43;100.00;67396.00;5087686;28;20492;-62
2022/09/01 08:02:17;;;;;;;16.00;3.60;;;;;;;-144.43;100.00;67396.00;5089040;28;20074;-62
2022/09/01 08:04:45;;;;;;;16.52;3.65;;;;;;;-144.43;100.00;67396.00;5078528;28;20115;-62
2022/09/01 08:07:13;;;;;;;11.52;3.05;;;;;;;-144.43;100.00;67396.00;5091090;28;20048;-62
2022/09/01 08:09:40;;;;;;;12.20;2.80;;;;;;;-144.43;100.00;67396.00;5091996;28;20032;-63
2022/09/01 08:12:07;;;;;;;12.65;2.92;;;;;;;-144.43;100.00;67396.00;5093881;28;20050;-63
2022/09/01 08:14:39;;;;;;;17.90;3.03;;;;;;;-144.43;100.00;67396.00;5092482;28;20032;-63
2022/09/01 08:17:06;;;;;;;13.40;2.80;;;;;;;-144.43;100.00;67396.00;5092382;28;20110;-63
2022/09/01 08:19:33;;;;;;;11.43;2.42;;;;;;;-144.43;100.00;67396.00;5092582;28;20024;-63
2022/09/01 08:22:14;;;;;;;9.30;2.47;;;;;;;-144.43;100.00;67396.00;5085123;28;20253;-62
2022/09/01 08:25:06;;;;;;;6.45;2.30;;;;;;;-144.43;100.00;67396.00;5090365;28;20042;-64
2022/09/01 08:27:40;;;;;;;8.77;2.30;;;;;;;-144.43;100.00;67396.00;5091919;28;20541;-63
2022/09/01 08:30:13;;;;;;;10.32;2.42;;;;;;;-144.43;100.00;67396.00;5093204;28;20127;-62
2022/09/01 08:32:41;;;;;;;;;;;;;;;-144.43;100.00;67396.00;5092726;28;20036;-63
2022/09/01 08:35:10;;;;;;;7.18;2.60;;;;;;;-144.43;100.00;67396.00;5091630;28;20316;-65
2022/09/01 08:37:38;;;;;;;10.45;2.85;;;;;;;-144.43;100.00;67396.00;5091877;28;20421;-62
2022/09/01 08:40:07;;;;;;;9.02;2.78;;;;;;;-144.43;100.00;67396.00;5091345;28;20048;-63
2022/09/01 08:42:53;;;;;;;8.75;2.67;;;;;;;-144.43;100.00;67396.00;5092012;28;20044;-63
2022/09/01 08:45:27;;;;;;;9.20;2.40;;;;;;;-144.43;100.00;67396.00;5071764;28;20028;-63
2022/09/01 08:47:57;;;;;;;9.82;2.50;;;;;;;-144.43;100.00;67396.00;5071709;28;20037;-63
2022/09/01 08:50:24;;;;;;;7.78;2.60;;;;;;;-144.43;100.00;67396.00;5072078;28;20376;-63
2022/09/01 08:53:25;;;;;;;10.23;2.60;;;;;;;-144.43;100.00;67396.00;5093742;28;20111;-62
2022/09/01 08:55:56;;;;;;;7.88;2.58;;;;;;;-144.43;100.00;67396.00;5091522;28;20133;-62
2022/09/01 08:58:23;;;;;;;6.45;2.50;;;;;;;-144.43;100.00;67396.00;5093210;28;20052;-63
2022/09/01 09:01:19;;;;;;;9.48;2.40;;;;;;;-144.43;100.00;67396.00;5093356;28;20116;-63
2022/09/01 09:04:05;;;;;;;7.38;2.28;;;;;;;-144.43;100.00;67396.00;5092996;28;20115;-62
2022/09/01 09:06:42;;;;;;;8.75;2.30;;;;;;;-144.43;100.00;67396.00;5072537;28;20060;-62
2022/09/01 09:09:10;;;;;;;10.68;2.65;;;;;;;-144.43;100.00;67396.00;5072731;28;20032;-62
2022/09/01 09:11:45;;;;;;;10.50;2.70;;;;;;;-144.43;100.00;67396.00;5072733;28;20041;-62
2022/09/01 09:14:33;;;;;;;9.80;2.80;;;;;;;-144.43;100.00;67396.00;5072638;28;20032;-61
2022/09/01 09:17:01;;;;;;;7.45;3.05;;;;;;;-144.43;100.00;67396.00;5072607;28;20478;-62
2022/09/01 09:19:32;;;;;;;10.40;3.08;;;;;;;-144.43;100.00;67396.00;5072415;28;20141;-62
2022/09/01 09:22:01;;;;;;;8.35;3.00;;;;;;;-144.43;100.00;67396.00;5071364;28;20036;-62
2022/09/01 09:25:03;;;;;;;11.32;3.33;;;;;;;-144.43;100.00;67396.00;5072323;28;20035;-62
2022/09/01 09:27:45;;;;;;;9.85;4.38;;;;;;;-144.43;100.00;67396.00;5070528;28;20101;-62
2022/09/01 09:30:27;;;;;;;14.55;5.30;;;;;;;-144.43;100.00;67396.00;5072450;28;20032;-62
2022/09/01 09:33:02;;;;;;;9.77;5.15;;;;;;;-144.43;100.00;67396.00;5071307;28;20032;-63
2022/09/01 09:35:36;;;;;;;17.65;5.72;;;;;;;-144.43;100.00;67396.00;5084696;28;20028;-63
2022/09/01 09:38:17;;;;;;;14.48;4.90;;;;;;;-144.43;100.00;67396.00;5092543;28;20062;-62
2022/09/01 09:41:13;;;;;;;9.57;4.15;;;;;;;-144.43;100.00;67396.00;5092675;28;20047;-63
2022/09/01 09:43:57;;;;;;;9.32;3.30;;;;;;;-144.43;100.00;67396.00;5092451;28;20032;-63
2022/09/01 09:46:33;;;;;;;10.07;3.17;;;;;;;-144.43;100.00;67396.00;5092500;28;20040;-62
2022/09/01 09:49:15;;;;;;;9.35;2.85;;;;;;;-144.43;100.00;67396.00;5092507;28;20117;-63
2022/09/01 09:51:48;;;;;;;8.77;2.63;;;;;;;-144.43;100.00;67396.00;5092178;28;20390;-62
2022/09/01 09:54:20;;;;;;;8.98;2.60;;;;;;;-144.43;100.00;67396.00;5092356;28;20040;-63
2022/09/01 09:56:48;;;;;;;8.13;2.58;;;;;;;-144.43;100.00;67396.00;5093039;28;20092;-62
2022/09/01 09:59:35;;;;;;;8.63;2.40;;;;;;;-144.43;100.00;67396.00;5092294;28;20024;-63
2022/09/01 10:02:27;;;;;;;8.48;2.60;;;;;;;-144.43;100.00;67396.00;5092342;28;20051;-63
2022/09/01 10:04:54;;;;;;;8.52;2.40;;;;;;;-144.43;100.00;67396.00;5091987;28;20070;-63
2022/09/01 10:07:36;;;;;;;11.82;2.95;;;;;;;-144.43;100.00;67396.00;5093920;28;20486;-62
2022/09/01 10:10:26;;;;;;;12.23;2.53;;;;;;;-144.43;100.00;67396.00;5102860;28;20046;-62
2022/09/01 10:12:54;;;;;;;7.63;2.50;;;;;;;-144.43;100.00;67396.00;5112419;28;20032;-63
2022/09/01 10:15:32;;;;;;;11.98;2.90;;;;;;;-144.43;100.00;67396.00;5096386;28;20525;-62
2022/09/01 10:18:19;;;;;;;18.27;2.92;;;;;;;-144.43;100.00;67396.00;5096301;28;20040;-62
2022/09/01 10:20:55;;;;;;;9.63;2.70;;;;;;;-144.43;100.00;67396.00;5096416;28;20081;-62
2022/09/01 10:23:23;;;;;;;8.57;2.72;;;;;;;-144.43;100.00;67396.00;5096253;28;20078;-63
2022/09/01 10:25:55;;;;;;;8.45;2.80;;;;;;;-144.43;100.00;67396.00;5096188;28;20028;-62
2022/09/01 10:28:23;;;;;;;20.50;3.53;;;;;;;-144.43;100.00;67396.00;5096037;28;20093;-63
2022/09/01 10:30:52;;;;;;;10.52;2.63;;;;;;;-144.43;100.00;67396.00;5096240;28;20021;-62
2022/09/01 10:33:20;;;;;;;10.73;3.22;;;;;;;-144.43;100.00;67396.00;5096030;28;20335;-62
2022/09/01 10:35:54;;;;;;;9.85;3.47;;;;;;;-144.43;100.00;67396.00;5095692;28;20028;-61
2022/09/01 10:38:29;;;;;;;12.43;3.42;;;;;;;-144.43;100.00;67396.00;5095938;28;20111;-62
2022/09/01 10:41:07;;;;;;;9.00;3.17;;;;;;;-144.43;100.00;67396.00;5106430;28;20047;-62
2022/09/01 10:43:47;;;;;;;13.45;3.63;;;;;;;-144.43;100.00;67396.00;5116289;28;20478;-61
2022/09/01 10:46:20;;;;;;;13.30;3.40;;;;;;;-144.43;100.00;67396.00;5116128;27;20401;-61
2022/09/01 10:48:52;;;;;;;8.05;3.60;;;;;;;-144.43;100.00;67396.00;5116173;28;20069;-61
2022/09/01 10:51:19;;;;;;;8.85;3.85;;;;;;;-144.43;100.00;67396.00;5116077;28;20132;-62
2022/09/01 10:53:53;;;;;;;7.38;3.00;;;;;;;-144.43;100.00;67396.00;5115936;28;20127;-62
2022/09/01 10:56:48;;;;;;;9.15;3.50;;;;;;;-144.43;100.00;67396.00;5099039;28;20040;-62
2022/09/01 10:59:24;;;;;;;10.02;3.17;;;;;;;-144.43;100.00;67396.00;5095646;28;20036;-61
2022/09/01 11:01:51;;;;;;;11.75;3.55;;;;;;;-144.43;100.00;67396.00;5095371;28;20047;-63
2022/09/01 11:04:20;;;;;;;9.65;3.85;;;;;;;-144.43;100.00;67396.00;5095186;28;20028;-62
2022/09/01 11:06:49;;;;;;;11.68;4.90;;;;;;;-144.43;100.00;67396.00;5095260;28;20040;-61
2022/09/01 11:09:41;;;;;;;7.13;3.30;;;;;;;-144.43;100.00;67396.00;5095543;28;20032;-63
2022/09/01 11:12:13;;;;;;;8.52;3.65;;;;;;;-144.43;100.00;67396.00;5095034;28;20032;-63
2022/09/01 11:14:47;;;;;;;13.60;3.40;;;;;;;-144.43;100.00;67396.00;5095387;28;20384;-63
2022/09/01 11:17:22;;;;;;;12.68;2.95;;;;;;;-144.43;100.00;67396.00;5095021;28;20028;-63
2022/09/01 11:20:09;;;;;;;12.80;3.13;;;;;;;-144.43;100.00;67396.00;5095103;28;20034;-61
2022/09/01 11:22:39;;;;;;;11.52;3.03;;;;;;;-144.43;100.00;67396.00;5095201;28;20061;-62
2022/09/01 11:25:32;;;;;;;10.60;3.38;;;;;;;-144.43;100.00;67396.00;5095075;28;20549;-62
2022/09/01 11:28:05;;;;;;;9.77;2.90;;;;;;;-144.43;100.00;67396.00;5095024;28;20032;-62
2022/09/01 11:30:54;;;;;;;12.65;3.28;;;;;;;-144.43;100.00;67396.00;5094968;28;20043;-63